Time;durP1;ratioP1;P1;durP2;ratioP2;P2;SDS_P1;SDS_P2;PMS_P1;PMS_P2;Temp;Humidity;BMP_temperature;BMP_pressure;BME280_temperature;BME280_humidity;BME280_pressure;Samples;Min_cycle;Max_cycle;Signal;HPM_P1;HPM_P2
2022/06/30 00:00:01;;;;;;;24.82;18.54;;;;;;;22.22;42.83;100886.32;457721;116;923270;-76
2022/06/30 00:01:07;;;;;;;30.29;20.08;;;;;;;22.23;42.92;100889.94;457442;116;922580;-74
2022/06/30 00:02:10;;;;;;;34.43;20.19;;;;;;;22.22;43.05;100888.30;457716;116;922603;-75
2022/06/30 00:03:13;;;;;;;32.79;22.77;;;;;;;22.21;43.07;100887.47;457722;116;922547;-75
2022/06/30 00:04:17;;;;;;;43.56;24.61;;;;;;;22.22;42.94;100885.52;457561;116;922932;-75
2022/06/30 00:05:21;;;;;;;39.36;23.96;;;;;;;22.22;42.68;100888.30;457593;116;922662;-74
2022/06/30 00:06:24;;;;;;;49.48;25.83;;;;;;;22.22;42.40;100888.30;457702;116;922938;-75
2022/06/30 00:07:27;;;;;;;41.19;24.66;;;;;;;22.22;42.23;100883.55;457543;116;922523;-75
2022/06/30 00:08:30;;;;;;;40.57;24.92;;;;;;;22.22;42.16;100885.52;454353;116;923109;-75
2022/06/30 00:09:33;;;;;;;41.74;25.86;;;;;;;22.22;42.07;100882.74;454393;116;922705;-75
2022/06/30 00:10:35;;;;;;;48.37;26.45;;;;;;;22.22;42.05;100885.52;454417;116;922557;-75
2022/06/30 00:11:38;;;;;;;44.94;26.48;;;;;;;22.21;42.00;100886.63;454440;116;923024;-75
2022/06/30 00:12:41;;;;;;;37.38;25.57;;;;;;;22.20;42.03;100888.58;454419;116;923384;-76
2022/06/30 00:13:44;;;;;;;37.67;26.52;;;;;;;22.21;42.03;100889.41;454397;116;922497;-76
2022/06/30 00:14:47;;;;;;;43.72;26.57;;;;;;;22.21;42.15;100903.30;454473;116;922788;-75
2022/06/30 00:15:50;;;;;;;51.99;27.93;;;;;;;22.21;42.25;100892.19;454465;116;922515;-75
2022/06/30 00:16:54;;;;;;;56.53;27.28;;;;;;;22.21;42.14;100886.63;454477;116;922735;-76
2022/06/30 00:17:57;;;;;;;53.02;29.68;;;;;;;22.20;42.03;100884.96;454432;116;923088;-74
2022/06/30 00:19:00;;;;;;;43.55;27.52;;;;;;;22.19;41.96;100886.91;454440;116;922598;-74
2022/06/30 00:20:03;;;;;;;49.29;29.04;;;;;;;22.19;41.79;100898.02;454419;116;922479;-74
2022/06/30 00:21:07;;;;;;;52.56;29.58;;;;;;;22.18;41.91;100898.29;454357;116;923141;-74
2022/06/30 00:22:11;;;;;;;48.36;29.38;;;;;;;22.18;41.91;100898.29;454276;116;930231;-75
2022/06/30 00:23:14;;;;;;;44.81;27.51;;;;;;;22.19;41.65;100897.19;454319;116;922583;-75
2022/06/30 00:24:17;;;;;;;45.92;28.56;;;;;;;22.18;41.75;100890.80;454383;116;922623;-75
2022/06/30 00:25:22;;;;;;;52.28;28.56;;;;;;;22.18;41.84;100898.29;454172;116;922936;-75
2022/06/30 00:26:26;;;;;;;58.26;30.18;;;;;;;22.17;41.94;100902.17;454093;116;922502;-75
2022/06/30 00:27:30;;;;;;;47.68;28.77;;;;;;;22.15;42.00;100910.81;454275;116;930527;-75
2022/06/30 00:28:33;;;;;;;49.73;30.16;;;;;;;22.15;41.84;100910.81;454401;116;922587;-75
2022/06/30 00:29:36;;;;;;;50.36;31.09;;;;;;;22.13;41.66;100906.65;456253;114;922712;-76
2022/06/30 00:30:39;;;;;;;51.90;30.00;;;;;;;22.11;41.38;100909.70;463960;114;922560;-74
2022/06/30 00:31:41;;;;;;;53.52;30.91;;;;;;;22.07;41.28;100903.05;464633;114;923494;-75
2022/06/30 00:32:45;;;;;;;51.89;30.21;;;;;;;22.04;41.13;100910.03;464657;114;922624;-76
2022/06/30 00:33:49;;;;;;;55.30;31.69;;;;;;;22.01;41.26;100909.73;464663;113;923181;-74
2022/06/30 00:34:52;;;;;;;49.09;28.23;;;;;;;21.98;41.42;100904.77;464494;113;923251;-73
2022/06/30 00:35:55;;;;;;;52.96;30.22;;;;;;;21.96;41.65;100904.20;464642;114;922576;-74
2022/06/30 00:36:58;;;;;;;52.32;31.35;;;;;;;21.95;41.71;100900.59;464620;114;922572;-74
2022/06/30 00:38:02;;;;;;;60.02;32.09;;;;;;;21.93;41.79;100905.58;464660;114;922503;-74
2022/06/30 00:39:05;;;;;;;51.30;30.66;;;;;;;21.91;41.83;100904.19;464544;113;922767;-74
2022/06/30 00:40:09;;;;;;;55.09;31.50;;;;;;;21.89;42.00;100903.62;464617;114;922512;-75
2022/06/30 00:41:12;;;;;;;59.28;31.84;;;;;;;21.88;42.11;100899.22;464590;114;922554;-75
2022/06/30 00:42:15;;;;;;;57.60;32.78;;;;;;;21.85;42.25;100897.82;464640;114;922610;-75
2022/06/30 00:43:18;;;;;;;53.20;30.81;;;;;;;21.84;42.32;100892.55;464664;114;923079;-76
2022/06/30 00:44:22;;;;;;;57.72;30.75;;;;;;;21.84;42.41;100895.31;464651;113;922942;-75
2022/06/30 00:45:25;;;;;;;53.08;30.86;;;;;;;21.83;42.50;100888.93;464564;114;922496;-75
2022/06/30 00:46:31;;;;;;;52.28;30.22;;;;;;;21.83;42.49;100890.91;464402;114;922639;-75
2022/06/30 00:47:35;;;;;;;51.12;30.32;;;;;;;21.82;42.44;100892.84;464383;114;930557;-75
2022/06/30 00:48:38;;;;;;;51.92;30.70;;;;;;;21.80;42.42;100897.84;455838;116;922686;-75
2022/06/30 00:49:41;;;;;;;52.86;30.39;;;;;;;21.80;42.37;100895.06;456130;114;922566;-75
2022/06/30 00:50:44;;;;;;;50.71;29.47;;;;;;;21.78;42.38;100888.11;464677;114;922465;-75
2022/06/30 00:51:47;;;;;;;52.16;30.71;;;;;;;21.75;42.47;100894.24;464655;114;922599;-74
2022/06/30 00:52:51;;;;;;;54.90;30.60;;;;;;;21.74;42.47;100895.34;464612;114;930481;-74
2022/06/30 00:53:56;;;;;;;55.65;31.17;;;;;;;21.72;42.61;100892.88;464614;114;922712;-74
2022/06/30 00:55:00;;;;;;;48.94;29.03;;;;;;;21.73;42.54;100890.91;464439;113;922708;-74
2022/06/30 00:56:05;;;;;;;50.81;29.29;;;;;;;21.73;42.74;100888.13;464595;114;923080;-74
2022/06/30 00:57:10;;;;;;;52.34;29.40;;;;;;;21.72;43.07;100883.72;464087;114;922524;-75
2022/06/30 00:58:15;;;;;;;50.44;29.61;;;;;;;21.74;43.23;100884.25;464449;114;922621;-75
2022/06/30 00:59:20;;;;;;;41.88;28.42;;;;;;;21.74;43.18;100884.25;464392;113;922674;-75
2022/06/30 01:00:28;;;;;;;49.57;29.49;;;;;;;21.74;43.04;100895.34;464408;114;922894;-76
2022/06/30 01:01:32;;;;;;;46.04;29.37;;;;;;;21.73;43.15;100886.19;464473;114;922626;-75
2022/06/30 01:02:36;;;;;;;43.53;27.99;;;;;;;21.73;43.24;100890.91;464602;114;922557;-75
2022/06/30 01:03:39;;;;;;;52.12;28.71;;;;;;;21.73;43.22;100888.96;464577;114;922621;-76
2022/06/30 01:04:42;;;;;;;44.84;28.64;;;;;;;21.74;43.11;100885.08;464642;113;922660;-75
2022/06/30 01:05:46;;;;;;;52.00;28.01;;;;;;;21.74;43.15;100893.41;464647;114;922545;-75
2022/06/30 01:06:50;;;;;;;46.08;28.25;;;;;;;21.75;43.09;100892.30;464576;114;922569;-74
2022/06/30 01:07:55;;;;;;;48.18;28.49;;;;;;;21.76;43.08;100887.58;455562;115;922557;-75
2022/06/30 01:08:58;;;;;;;45.92;28.16;;;;;;;21.75;43.01;100892.30;447850;116;922770;-75
2022/06/30 01:12:46;;;;;;;46.06;26.82;;;;;;;21.73;43.02;100893.68;465290;114;922640;-74
2022/06/30 01:13:49;;;;;;;53.81;28.19;;;;;;;21.67;42.95;100898.41;465291;114;922452;-75
2022/06/30 01:14:55;;;;;;;43.46;27.11;;;;;;;21.67;42.95;100898.41;465383;113;930486;-75
2022/06/30 01:15:58;;;;;;;41.56;27.08;;;;;;;21.67;43.50;100892.06;465214;114;922616;-75
2022/06/30 01:17:01;;;;;;;50.33;27.00;;;;;;;21.67;43.68;100892.86;465474;114;922673;-75
2022/06/30 01:18:04;;;;;;;41.61;26.82;;;;;;;21.68;43.85;100897.30;465429;114;922521;-75
2022/06/30 01:19:08;;;;;;;40.85;25.86;;;;;;;21.67;43.78;100890.08;465427;113;922833;-76
2022/06/30 01:20:13;;;;;;;43.98;25.68;;;;;;;21.67;43.59;100892.86;465239;114;923044;-75
2022/06/30 01:21:17;;;;;;;40.48;25.94;;;;;;;21.67;43.56;100889.28;465365;114;923034;-75
2022/06/30 01:22:20;;;;;;;41.74;26.67;;;;;;;21.67;43.63;100895.63;465345;114;922616;-75
2022/06/30 01:23:24;;;;;;;45.73;26.62;;;;;;;21.66;43.57;100893.16;465282;114;930458;-74
2022/06/30 01:24:27;;;;;;;40.26;26.01;;;;;;;21.66;43.65;100891.22;465409;113;922595;-75
2022/06/30 01:25:30;;;;;;;42.83;25.48;;;;;;;21.64;43.50;100894.27;465464;114;923133;-76
2022/06/30 01:26:34;;;;;;;44.54;26.18;;;;;;;21.64;43.39;100887.89;455848;116;922667;-75
2022/06/30 01:27:38;;;;;;;41.55;25.89;;;;;;;21.63;43.37;100891.77;456276;114;923876;-76
2022/06/30 01:28:40;;;;;;;39.12;24.24;;;;;;;21.62;43.35;100881.77;465334;114;930460;-76
2022/06/30 01:29:44;;;;;;;34.53;24.37;;;;;;;21.61;43.35;100882.91;464252;113;922585;-76
2022/06/30 01:30:47;;;;;;;35.62;24.19;;;;;;;21.59;43.43;100879.57;465455;114;922625;-76
2022/06/30 01:31:50;;;;;;;39.89;24.32;;;;;;;21.57;43.64;100884.56;465448;114;922537;-76
2022/06/30 01:32:53;;;;;;;35.08;23.79;;;;;;;21.56;43.78;100886.50;465425;114;922561;-76
2022/06/30 01:33:56;;;;;;;37.50;24.47;;;;;;;21.55;43.92;100879.31;465387;112;922622;-75
2022/06/30 01:34:59;;;;;;;37.21;24.37;;;;;;;21.54;43.92;100883.19;465394;113;922753;-75
2022/06/30 01:36:03;;;;;;;41.46;25.60;;;;;;;21.55;43.95;100884.03;465341;114;922908;-74
2022/06/30 01:37:06;;;;;;;39.22;24.72;;;;;;;21.54;43.97;100877.64;465363;114;930471;-75
2022/06/30 01:38:09;;;;;;;41.23;23.84;;;;;;;21.55;43.88;100876.53;465091;114;923207;-75
2022/06/30 01:39:12;;;;;;;33.51;24.68;;;;;;;21.57;43.86;100876.23;465011;114;922991;-74
2022/06/30 01:40:16;;;;;;;35.96;23.26;;;;;;;21.56;43.79;100874.56;465034;114;922580;-75
2022/06/30 01:41:19;;;;;;;35.04;23.64;;;;;;;21.54;43.68;100874.03;465089;114;922605;-75
2022/06/30 01:42:22;;;;;;;37.03;24.18;;;;;;;21.54;43.68;100882.36;465045;114;922478;-76
2022/06/30 01:43:24;;;;;;;34.74;23.41;;;;;;;21.53;43.68;100877.91;465064;114;922545;-76
2022/06/30 01:44:28;;;;;;;40.06;23.84;;;;;;;21.52;43.69;100876.25;457408;116;922918;-76
2022/06/30 01:45:32;;;;;;;34.48;23.26;;;;;;;21.52;43.70;100881.80;457450;116;922747;-76
2022/06/30 01:46:36;;;;;;;38.69;22.58;;;;;;;21.50;43.67;100879.29;457205;116;922628;-75
2022/06/30 01:47:39;;;;;;;34.04;23.57;;;;;;;21.49;43.78;100874.88;457405;116;923242;-75
2022/06/30 01:48:42;;;;;;;32.11;22.03;;;;;;;21.48;43.72;100880.70;457397;116;922614;-74
2022/06/30 01:49:45;;;;;;;33.49;22.27;;;;;;;21.47;43.80;100879.87;457387;115;922898;-75
2022/06/30 01:50:48;;;;;;;31.32;21.57;;;;;;;21.47;43.75;100876.26;457395;116;922660;-75
2022/06/30 01:51:51;;;;;;;29.24;21.86;;;;;;;21.45;43.80;100876.53;457397;116;922613;-75
2022/06/30 01:52:55;;;;;;;30.59;22.26;;;;;;;21.44;43.86;100874.89;457371;116;923381;-74
2022/06/30 01:53:58;;;;;;;29.97;21.80;;;;;;;21.45;43.73;100872.92;457308;116;922550;-75
2022/06/30 01:55:03;;;;;;;36.12;22.09;;;;;;;21.44;43.67;100877.66;458534;114;930395;-76
2022/06/30 01:56:06;;;;;;;31.77;22.12;;;;;;;21.43;43.60;100878.77;465362;113;922516;-75
2022/06/30 01:57:09;;;;;;;34.44;21.38;;;;;;;21.43;43.65;100873.22;465373;114;930226;-76
2022/06/30 01:58:12;;;;;;;32.70;21.44;;;;;;;21.43;43.51;100876.00;465425;114;922707;-76
2022/06/30 01:59:15;;;;;;;39.94;22.58;;;;;;;21.43;43.54;100880.71;465356;113;923366;-75
2022/06/30 02:00:26;;;;;;;37.68;22.53;;;;;;;21.43;43.44;100883.48;465208;114;922643;-75
2022/06/30 02:01:28;;;;;;;30.82;22.01;;;;;;;21.42;43.39;100867.95;465289;114;922589;-75
2022/06/30 02:02:32;;;;;;;29.23;22.96;;;;;;;21.41;43.47;100874.59;465451;114;922531;-76
2022/06/30 02:03:35;;;;;;;30.64;22.88;;;;;;;21.41;43.53;100872.66;465422;114;922734;-75
2022/06/30 02:04:47;;;;;;;38.10;23.32;;;;;;;21.41;43.56;100874.59;465395;112;922838;-75
2022/06/30 02:05:50;;;;;;;38.40;23.52;;;;;;;21.40;43.59;100870.98;465238;114;922632;-74
2022/06/30 02:06:53;;;;;;;31.71;22.20;;;;;;;21.40;43.60;100875.70;465437;114;922900;-75
2022/06/30 02:07:56;;;;;;;39.21;24.36;;;;;;;21.39;43.62;100880.41;465506;114;922585;-75
2022/06/30 02:08:58;;;;;;;35.80;23.58;;;;;;;21.39;43.67;100882.39;465385;114;922532;-76
2022/06/30 02:10:06;;;;;;;41.16;22.86;;;;;;;21.39;43.77;100876.84;465491;114;922604;-76
2022/06/30 02:11:09;;;;;;;35.66;24.10;;;;;;;21.38;43.95;100884.33;465263;114;922585;-76
2022/06/30 02:13:34;;;;;;;34.36;22.37;;;;;;;21.38;44.25;100877.95;465212;114;922882;-75
2022/06/30 02:14:37;;;;;;;29.59;22.64;;;;;;;21.36;44.33;100878.22;465434;112;922488;-76
2022/06/30 02:15:40;;;;;;;36.69;23.76;;;;;;;21.36;44.38;100875.44;465424;114;922580;-76
2022/06/30 02:16:44;;;;;;;34.47;22.14;;;;;;;21.35;44.43;100879.31;465430;114;922555;-75
2022/06/30 02:17:50;;;;;;;32.38;22.74;;;;;;;21.36;44.46;100877.37;465346;114;922632;-75
2022/06/30 02:18:53;;;;;;;42.50;23.56;;;;;;;21.35;44.55;100884.03;465171;114;930311;-74
2022/06/30 02:19:56;;;;;;;39.10;24.04;;;;;;;21.33;44.57;100876.02;465398;114;922515;-74
2022/06/30 02:20:59;;;;;;;37.02;22.61;;;;;;;21.33;44.57;100881.56;465447;114;922693;-75
2022/06/30 02:22:02;;;;;;;28.80;22.48;;;;;;;21.32;44.58;100879.89;465448;113;922907;-76
2022/06/30 02:23:05;;;;;;;36.51;23.60;;;;;;;21.33;44.62;100880.73;465376;114;922906;-75
2022/06/30 02:24:08;;;;;;;39.47;24.76;;;;;;;21.32;44.60;100882.66;465369;114;922893;-76
2022/06/30 02:25:11;;;;;;;35.21;24.29;;;;;;;21.32;44.57;100882.66;465402;114;923075;-75
2022/06/30 02:26:15;;;;;;;36.52;23.64;;;;;;;21.32;44.65;100890.16;465340;114;922587;-75
2022/06/30 02:27:24;;;;;;;36.72;23.80;;;;;;;21.30;44.67;100884.87;465428;114;922878;-75
2022/06/30 02:28:26;;;;;;;35.38;22.19;;;;;;;21.29;44.69;100894.30;465201;114;922560;-74
2022/06/30 02:29:29;;;;;;;38.49;23.67;;;;;;;21.27;44.75;100890.16;464164;114;922642;-74
2022/06/30 02:30:33;;;;;;;43.13;24.53;;;;;;;21.26;44.72;100896.81;465093;114;922538;-75
2022/06/30 02:31:36;;;;;;;39.61;24.31;;;;;;;21.23;44.73;100887.09;465411;114;922589;-75
2022/06/30 02:32:39;;;;;;;39.33;24.92;;;;;;;21.23;44.62;100889.06;465439;114;922536;-76
2022/06/30 02:33:42;;;;;;;37.78;23.49;;;;;;;21.20;44.45;100888.49;465922;112;922502;-76
2022/06/30 02:34:45;;;;;;;34.63;22.93;;;;;;;21.18;44.39;100893.47;470371;112;922828;-74
2022/06/30 02:35:48;;;;;;;36.73;23.36;;;;;;;21.18;44.57;100889.86;470391;112;922773;-74
2022/06/30 02:36:51;;;;;;;43.92;23.57;;;;;;;21.16;44.61;100892.94;470380;112;922827;-75
2022/06/30 02:37:54;;;;;;;35.40;23.19;;;;;;;21.17;44.60;100893.77;470383;112;922809;-75
2022/06/30 02:38:57;;;;;;;27.71;22.23;;;;;;;21.15;44.66;100896.81;470361;112;923225;-75
2022/06/30 02:40:00;;;;;;;33.17;21.59;;;;;;;21.15;44.68;100896.81;466850;112;922594;-75
2022/06/30 02:41:03;;;;;;;32.01;22.94;;;;;;;21.15;44.72;100893.20;457361;116;922623;-74
2022/06/30 02:42:06;;;;;;;39.11;24.64;;;;;;;21.17;44.78;100893.77;457334;116;922590;-75
2022/06/30 02:43:09;;;;;;;37.70;23.34;;;;;;;21.17;44.79;100894.58;457339;116;922759;-74
2022/06/30 02:44:12;;;;;;;34.34;21.82;;;;;;;21.19;44.84;100895.14;457289;116;923044;-74
2022/06/30 02:45:15;;;;;;;39.89;23.09;;;;;;;21.20;44.88;100896.81;457308;116;922998;-75
2022/06/30 02:46:18;;;;;;;40.96;22.75;;;;;;;21.22;44.70;100904.86;457318;116;922550;-76
2022/06/30 02:47:25;;;;;;;29.56;21.97;;;;;;;21.23;44.58;100907.34;457344;116;922915;-75
2022/06/30 02:48:28;;;;;;;36.36;21.52;;;;;;;21.23;44.49;100904.56;456806;116;922590;-76
2022/06/30 02:49:31;;;;;;;31.08;21.27;;;;;;;21.24;44.40;100899.85;462396;114;922712;-75
2022/06/30 02:50:34;;;;;;;29.85;20.79;;;;;;;21.25;44.37;100909.01;463008;114;922594;-76
2022/06/30 02:51:37;;;;;;;30.62;22.59;;;;;;;21.27;44.42;100901.25;463042;114;930399;-75
2022/06/30 02:52:42;;;;;;;30.89;20.81;;;;;;;21.28;44.36;100909.27;463077;114;922552;-76
2022/06/30 02:53:45;;;;;;;33.16;22.31;;;;;;;21.29;44.24;100908.17;462991;114;923126;-75
2022/06/30 02:54:48;;;;;;;29.42;21.86;;;;;;;21.30;44.31;100909.00;463091;114;922582;-76
2022/06/30 02:55:51;;;;;;;29.32;20.83;;;;;;;21.30;44.40;100909.84;457025;114;923315;-75
2022/06/30 02:56:54;;;;;;;29.31;21.13;;;;;;;21.32;44.45;100912.34;456853;116;922840;-75
2022/06/30 02:57:57;;;;;;;34.51;20.49;;;;;;;21.31;44.43;100908.73;456859;116;922631;-74
2022/06/30 02:59:00;;;;;;;26.96;20.52;;;;;;;21.31;44.58;100908.73;456890;116;922604;-74
2022/06/30 03:00:08;;;;;;;35.49;21.71;;;;;;;21.31;44.67;100905.95;456882;116;923198;-75
2022/06/30 03:01:11;;;;;;;34.28;19.72;;;;;;;21.30;44.75;100909.84;456749;116;922574;-74
2022/06/30 03:02:14;;;;;;;28.02;19.06;;;;;;;21.30;44.88;100917.33;456925;116;922592;-75
2022/06/30 03:03:17;;;;;;;28.56;19.43;;;;;;;21.31;44.68;100907.90;456931;116;922600;-75
2022/06/30 03:04:21;;;;;;;31.14;20.32;;;;;;;21.30;44.67;100909.84;456905;116;923086;-75
2022/06/30 03:05:25;;;;;;;29.38;20.24;;;;;;;21.28;44.71;100903.73;456788;116;923199;-75
2022/06/30 03:06:30;;;;;;;22.66;18.26;;;;;;;21.28;44.91;100906.50;456788;116;922439;-74
2022/06/30 03:07:33;;;;;;;25.86;18.28;;;;;;;21.29;45.03;100901.78;456820;116;922980;-75
2022/06/30 03:08:36;;;;;;;25.49;17.86;;;;;;;21.29;45.00;100902.63;456899;116;922609;-75
2022/06/30 03:09:39;;;;;;;27.60;18.61;;;;;;;21.30;45.11;100904.29;453213;116;922888;-75
2022/06/30 03:10:42;;;;;;;28.75;18.30;;;;;;;21.32;45.00;100901.25;452886;117;922599;-74
2022/06/30 03:11:45;;;;;;;22.98;18.59;;;;;;;21.32;44.90;100898.47;452956;117;922561;-74
2022/06/30 03:12:50;;;;;;;24.23;17.67;;;;;;;21.31;44.89;100896.80;452037;117;923104;-74
2022/06/30 03:13:53;;;;;;;26.35;19.02;;;;;;;21.31;45.01;100899.58;452931;117;922840;-75
2022/06/30 03:14:56;;;;;;;29.85;18.16;;;;;;;21.30;44.96;100897.91;452958;117;922659;-74
2022/06/30 03:16:01;;;;;;;29.61;17.94;;;;;;;21.29;44.65;100902.63;452973;117;922586;-73
2022/06/30 03:17:04;;;;;;;26.11;17.92;;;;;;;21.30;44.62;100897.91;452765;117;922581;-75
2022/06/30 03:18:07;;;;;;;28.47;19.11;;;;;;;21.29;44.75;100899.84;452843;117;922847;-74
2022/06/30 03:19:12;;;;;;;26.98;19.28;;;;;;;21.30;45.04;100903.45;452174;117;923130;-74
2022/06/30 03:20:16;;;;;;;31.72;17.87;;;;;;;21.30;45.03;100907.06;452911;117;922577;-75
2022/06/30 03:21:20;;;;;;;26.28;17.75;;;;;;;21.30;45.02;100904.29;452958;117;922550;-74
2022/06/30 03:22:23;;;;;;;27.08;17.86;;;;;;;21.30;44.92;100898.74;452850;117;922550;-76
2022/06/30 03:23:26;;;;;;;27.41;17.57;;;;;;;21.31;45.20;100900.41;452883;117;930316;-76
2022/06/30 03:24:29;;;;;;;21.17;17.03;;;;;;;21.32;45.37;100898.47;452904;117;923492;-74
2022/06/30 03:25:32;;;;;;;23.14;16.94;;;;;;;21.33;45.35;100892.66;452897;117;922751;-74
2022/06/30 03:26:36;;;;;;;25.57;17.98;;;;;;;21.36;45.52;100899.58;452880;117;922765;-74
2022/06/30 03:27:39;;;;;;;23.80;17.43;;;;;;;21.38;45.53;100894.59;452791;117;922741;-77
2022/06/30 03:28:42;;;;;;;20.44;17.07;;;;;;;21.40;45.24;100893.19;452866;117;930410;-75
2022/06/30 03:29:45;;;;;;;24.51;16.57;;;;;;;21.42;45.05;100896.52;454526;115;922561;-75
2022/06/30 03:30:48;;;;;;;29.91;16.91;;;;;;;21.45;44.97;100895.11;454273;115;923075;-75
2022/06/30 03:31:51;;;;;;;25.56;17.26;;;;;;;21.47;44.86;100902.06;453768;117;922529;-75
2022/06/30 03:32:54;;;;;;;22.29;16.40;;;;;;;21.48;44.80;100889.86;453728;117;922536;-74
2022/06/30 03:33:57;;;;;;;19.65;17.54;;;;;;;21.49;44.71;100891.53;453762;115;922907;-76
2022/06/30 03:35:00;;;;;;;25.37;16.27;;;;;;;21.52;44.64;100895.67;453638;117;922901;-74
2022/06/30 03:36:05;;;;;;;23.84;17.29;;;;;;;21.54;44.54;100890.69;454656;115;922899;-74
2022/06/30 03:37:09;;;;;;;18.48;15.91;;;;;;;21.55;44.44;100893.19;461706;115;922507;-74
2022/06/30 03:38:13;;;;;;;23.52;15.98;;;;;;;21.58;44.36;100887.06;461722;115;922881;-76
2022/06/30 03:39:16;;;;;;;18.65;15.12;;;;;;;21.61;44.35;100886.48;461533;113;922556;-75
2022/06/30 03:40:20;;;;;;;29.52;16.91;;;;;;;21.63;44.39;100887.05;461697;115;930503;-75
2022/06/30 03:41:23;;;;;;;21.82;16.57;;;;;;;21.66;44.49;100890.39;461678;115;922899;-76
2022/06/30 03:42:26;;;;;;;22.33;14.94;;;;;;;21.69;44.59;100892.59;461729;115;922839;-75
2022/06/30 03:43:29;;;;;;;17.48;14.69;;;;;;;21.71;44.75;100885.66;461704;115;922538;-76
2022/06/30 03:44:32;;;;;;;22.87;14.21;;;;;;;21.73;44.68;100890.91;461641;113;922677;-76
2022/06/30 03:45:35;;;;;;;17.26;14.24;;;;;;;21.77;44.67;100897.58;461753;115;922866;-76
2022/06/30 03:46:38;;;;;;;19.48;13.36;;;;;;;21.80;44.71;100892.28;461781;115;922644;-76
2022/06/30 03:47:41;;;;;;;18.61;14.21;;;;;;;21.82;44.61;100887.30;461780;115;922684;-77
2022/06/30 03:48:44;;;;;;;17.71;13.28;;;;;;;21.86;44.62;100890.33;461781;115;922589;-76
2022/06/30 03:49:47;;;;;;;16.32;13.77;;;;;;;21.89;44.60;100889.75;461730;113;922923;-76
2022/06/30 03:50:50;;;;;;;17.59;13.88;;;;;;;21.92;44.45;100890.03;461795;115;922867;-76
2022/06/30 03:51:54;;;;;;;14.44;12.74;;;;;;;21.95;44.30;100895.04;461818;115;922818;-75
2022/06/30 03:52:57;;;;;;;20.17;13.76;;;;;;;21.97;44.17;100891.98;461784;115;923003;-75
2022/06/30 03:54:00;;;;;;;18.54;13.13;;;;;;;21.99;44.00;100890.61;461696;113;923364;-76
2022/06/30 03:55:04;;;;;;;19.43;13.03;;;;;;;22.02;43.99;100890.03;460326;115;930500;-75
2022/06/30 03:56:07;;;;;;;16.89;13.41;;;;;;;22.05;43.84;100895.00;454345;116;922644;-75
2022/06/30 03:57:10;;;;;;;15.08;12.85;;;;;;;22.08;43.75;100887.23;454348;116;930750;-74
2022/06/30 03:58:14;;;;;;;20.54;12.99;;;;;;;22.12;43.74;100891.09;454375;116;922666;-75
2022/06/30 03:59:17;;;;;;;20.60;13.34;;;;;;;22.14;43.64;100895.27;454346;116;922660;-76
2022/06/30 04:00:21;;;;;;;21.95;13.05;;;;;;;22.15;43.59;100885.82;454403;116;923069;-76
2022/06/30 04:01:24;;;;;;;18.15;13.51;;;;;;;22.16;43.58;100884.71;454323;116;922590;-75
2022/06/30 04:02:27;;;;;;;15.78;12.39;;;;;;;22.17;43.70;100886.34;454328;116;922569;-76
2022/06/30 04:03:31;;;;;;;20.04;13.44;;;;;;;22.19;43.74;100889.69;454406;116;923022;-75
2022/06/30 04:04:34;;;;;;;20.04;13.60;;;;;;;22.22;43.88;100889.09;454299;116;922831;-76
2022/06/30 04:05:38;;;;;;;20.83;14.64;;;;;;;22.24;43.87;100886.88;454331;116;930522;-76
2022/06/30 04:06:41;;;;;;;24.32;15.94;;;;;;;22.27;43.79;100889.11;454329;116;922593;-75
2022/06/30 04:07:45;;;;;;;25.00;17.69;;;;;;;22.32;43.51;100893.80;454434;116;922648;-75
2022/06/30 04:08:49;;;;;;;24.19;18.28;;;;;;;22.32;43.51;100893.80;454353;116;922623;-76
2022/06/30 04:09:52;;;;;;;26.33;18.91;;;;;;;22.35;42.92;100882.94;453747;116;922636;-76
2022/06/30 04:10:55;;;;;;;24.70;18.71;;;;;;;22.37;42.75;100885.44;453509;117;922653;-75
2022/06/30 04:11:58;;;;;;;29.35;19.34;;;;;;;22.38;42.64;100887.91;453535;117;922569;-75
2022/06/30 04:13:01;;;;;;;30.67;19.52;;;;;;;22.40;42.51;100887.63;453503;117;923151;-75
2022/06/30 04:14:04;;;;;;;25.64;18.92;;;;;;;22.42;42.42;100877.91;453472;117;922902;-76
2022/06/30 04:15:08;;;;;;;30.89;20.38;;;;;;;22.43;42.46;100885.13;453491;117;922812;-75
2022/06/30 04:16:11;;;;;;;27.99;20.19;;;;;;;22.46;42.42;100883.71;453425;117;922634;-76
2022/06/30 04:17:15;;;;;;;28.65;19.81;;;;;;;22.48;42.38;100892.61;453434;117;922577;-76
2022/06/30 04:18:18;;;;;;;29.46;21.82;;;;;;;22.50;42.54;100886.73;453520;117;922643;-76
2022/06/30 04:19:22;;;;;;;35.91;20.99;;;;;;;22.53;42.42;100886.19;453476;117;922848;-75
2022/06/30 04:20:26;;;;;;;34.88;22.46;;;;;;;22.55;42.25;100886.73;453343;117;922648;-76
2022/06/30 04:21:29;;;;;;;31.96;22.26;;;;;;;22.57;42.08;100895.59;453565;117;922529;-75
2022/06/30 04:22:32;;;;;;;29.59;21.91;;;;;;;22.59;42.11;100885.88;453499;117;922601;-75
2022/06/30 04:23:36;;;;;;;34.56;21.99;;;;;;;22.60;42.02;100895.05;453390;117;922638;-76
2022/06/30 04:24:39;;;;;;;34.39;22.06;;;;;;;22.61;42.02;100896.68;453372;117;922559;-76
2022/06/30 04:25:42;;;;;;;32.23;21.97;;;;;;;22.60;42.12;100898.66;453538;117;922547;-75
2022/06/30 04:26:45;;;;;;;35.74;22.91;;;;;;;22.61;42.30;100903.07;450468;114;922663;-75
2022/06/30 04:27:50;;;;;;;31.76;20.72;;;;;;;22.61;42.52;100897.52;448549;118;923146;-76
2022/06/30 04:28:54;;;;;;;38.32;22.83;;;;;;;22.63;42.64;100908.35;448300;118;922901;-75
2022/06/30 04:29:57;;;;;;;34.44;21.88;;;;;;;22.65;42.61;100901.41;452063;114;923429;-77
2022/06/30 04:32:37;;;;;;;33.03;22.87;;;;;;;22.70;42.48;100901.37;452674;114;922618;-75
2022/06/30 04:33:40;;;;;;;32.26;21.88;;;;;;;22.73;42.37;100900.81;461789;113;922664;-77
2022/06/30 04:34:43;;;;;;;36.73;23.84;;;;;;;22.75;42.27;100904.15;460363;114;922665;-76
2022/06/30 04:35:46;;;;;;;37.74;23.57;;;;;;;22.78;42.16;100900.78;460409;115;922633;-77
2022/06/30 04:36:50;;;;;;;43.64;24.81;;;;;;;22.79;42.00;100902.44;460368;115;922592;-77
2022/06/30 04:37:58;;;;;;;40.19;24.59;;;;;;;22.81;41.95;100896.60;460382;115;922719;-77
2022/06/30 04:39:01;;;;;;;39.56;24.54;;;;;;;22.83;41.71;100899.91;460165;114;922797;-75
2022/06/30 04:41:27;;;;;;;35.36;24.41;;;;;;;22.87;41.61;100901.02;460152;115;922976;-75
2022/06/30 04:42:30;;;;;;;44.61;25.24;;;;;;;22.88;41.30;100897.09;460354;115;923439;-76
2022/06/30 04:43:33;;;;;;;40.04;24.62;;;;;;;22.89;41.17;100890.41;460351;115;922469;-75
2022/06/30 04:44:36;;;;;;;38.66;24.13;;;;;;;22.91;41.06;100890.97;460332;114;923051;-75
2022/06/30 04:45:39;;;;;;;36.17;24.75;;;;;;;22.91;40.97;100893.75;460370;115;922622;-75
2022/06/30 04:46:43;;;;;;;39.78;24.29;;;;;;;22.93;40.92;100885.13;460355;115;922589;-76
2022/06/30 04:47:46;;;;;;;36.29;23.73;;;;;;;22.94;40.87;100895.94;460394;115;922947;-76
2022/06/30 04:48:49;;;;;;;40.04;25.15;;;;;;;22.95;40.92;100892.04;460408;115;922717;-76
2022/06/30 04:49:52;;;;;;;32.53;20.44;;;;;;;22.97;41.07;100888.98;460355;114;922643;-74
2022/06/30 04:50:55;;;;;;;29.31;19.80;;;;;;;22.98;40.96;100888.70;460365;115;922785;-75
2022/06/30 04:51:58;;;;;;;30.87;19.82;;;;;;;23.00;40.84;100891.17;460382;115;922559;-75